• Join FlightAware (Why Join?)
  • Login
  • US Flag 
10:48PM EST


 

Airport Tracker/Info


-or-


 

Live Flight TrackerFlight Track Log ✈ AAY883 ✈ 22-Jun-2014 ✈ KGRR - KPIE

Flight Track Log - Related Links

Times and Time Zones

All times are in EDT time to prevent confusion due to time zone crossing. See the AAY883 flight status page for this flight to view local times or setup timezone preferences in your user account.

Time Position Orientation Groundspeed Altitude Reporting Facility
EDT Latitude Longitude Course Direction KTS MPH feet Rate Location/Type
07:42PM 42.8128 -85.5042 173° South 174 200 2,900  Level Chicago Center
07:48PM 42.1817 -85.3627 173° South  Level Estimated
07:48PM 42.3020 -85.4063 173° South 382 440 15,300  Level FlightAware ADS-B (KMDW)
07:49PM 42.2525 -85.3981 173° South 387 445 16,300 1,920 Climbing FlightAware ADS-B (KMDW)
07:49PM 42.1760 -85.3852 173° South 396 456 17,600 1,800 Climbing FlightAware ADS-B (KMDW)
07:51PM 42.0269 -85.3601 173° South 407 468 20,000 1,500 Climbing FlightAware ADS-B (KMDW)
07:51PM 41.9502 -85.3475 173° South 423 487 20,700 1,440 Climbing FlightAware ADS-B (KMDW)
07:52PM 41.9002 -85.3391 171° South 421 484 21,700 2,100 Climbing FlightAware ADS-B (KMDW)
07:52PM 41.8502 -85.3201 158° South 417 480 22,600 2,460 Climbing FlightAware ADS-B (KMDW)
07:54PM 41.7214 -85.2500 157° South 384 442 25,800 1,920 Climbing FlightAware ADS-B (KMDW)
07:55PM 41.6338 -85.2019 158° South 397 457 27,000 600 Climbing FlightAware ADS-B (KMDW)
07:55PM 41.5318 -85.1462 158° South 436 502 27,000 360 Level FlightAware ADS-B (KMDW)
07:57PM 41.2942 -85.0525 158° South 447 514 28,100 540 Climbing FlightAware ADS-B (KMDW)
07:58PM 41.2536 -85.0497 158° South 463 533 28,400 600 Climbing Chicago Center
07:59PM 41.1217 -85.0394 177° South 468 539 29,100 900 Climbing Chicago Center
08:00PM 40.9628 -85.0292 177° South 473 544 30,300 960 Climbing Chicago Center
08:01PM 40.8281 -85.0192 177° South 479 551 31,100 780 Climbing Chicago Center
08:02PM 40.6917 -85.0083 177° South 486 559 32,000 960 Climbing Chicago Center
08:03PM 40.6175 -85.0050 178° South 486 559 32,700 1,140 Climbing Indianapolis Center
08:04PM 40.4839 -84.9956 177° South 486 559 33,900 600 Climbing Indianapolis Center
08:05PM 40.3222 -84.9844 177° South 486 559 34,000  Climbing Indianapolis Center
08:06PM 40.1903 -84.9747 177° South 481 554 34,000  Level Indianapolis Center
08:07PM 40.0539 -84.9650 177° South 481 554 34,000  Level Indianapolis Center
08:08PM 39.9200 -84.9556 177° South 482 555 34,000 660 Level Indianapolis Center
08:10PM 39.5554 -84.9298 177° South 484 557 36,600 540 Climbing FlightAware ADS-B
08:13PM 39.3405 -84.9152 177° South 467 537 37,000 60 Climbing FlightAware ADS-B
08:14PM 39.0682 -84.8965 177° South 467 537 37,000  Level FlightAware ADS-B
08:15PM 38.9779 -84.8903 177° South 461 531 37,000  Level FlightAware ADS-B
08:15PM 38.9144 -84.8858 177° South 465 535 37,000  Level FlightAware ADS-B
08:16PM 38.8423 -84.8810 177° South 467 537 37,000  Level FlightAware ADS-B
08:16PM 38.7770 -84.8764 177° South 467 537 37,000  Level FlightAware ADS-B (KCVG)
08:17PM 38.6886 -84.8707 177° South 466 536 37,000 60 Level FlightAware ADS-B
08:18PM 38.6225 -84.8663 177° South 463 533 37,100  Climbing FlightAware ADS-B
08:19PM 38.5042 -84.8809 195° South 464 534 37,000 -60 Descending FlightAware ADS-B
08:19PM 38.4055 -84.9148 195° South 463 533 37,000  Level FlightAware ADS-B (KCVG)
08:21PM 38.2569 -84.9655 195° South 462 532 37,000  Level FlightAware ADS-B
08:21PM 38.1757 -84.9932 195° South 463 533 37,000  Level FlightAware ADS-B (KCVG)
08:22PM 38.1137 -85.0145 195° South 462 532 37,000  Level FlightAware ADS-B (KCVG)
08:23PM 38.0055 -85.0514 195° South 463 533 37,000  Level FlightAware ADS-B
08:24PM 37.8822 -85.0925 194° South 463 533 37,000  Level FlightAware ADS-B
08:24PM 37.7633 -85.1210 180° South 465 535 37,000  Level FlightAware ADS-B
08:26PM 37.6271 -85.1094 176° South 463 533 37,000  Level FlightAware ADS-B
08:27PM 37.4970 -85.0958 175° South 463 533 37,000  Level FlightAware ADS-B
08:28PM 37.3678 -85.0810 175° South 466 536 37,000  Level FlightAware ADS-B
08:29PM 37.2385 -85.0666 175° South 467 537 37,000  Level FlightAware ADS-B
08:30PM 37.1104 -85.0522 175° South 469 540 37,000  Level FlightAware ADS-B
08:31PM 36.9662 -85.0361 175° South 467 537 37,000  Level FlightAware ADS-B
08:32PM 36.8061 -85.0183 175° South 464 534 37,000  Level FlightAware ADS-B
08:33PM 36.6502 -85.0009 175° South 463 533 37,000  Level FlightAware ADS-B
08:36PM 36.2673 -84.9589 175° South 458 527 37,000  Level FlightAware ADS-B
08:37PM 36.1114 -84.9417 175° South 458 527 37,000  Level FlightAware ADS-B
08:41PM 36.7862 -85.0161 175° South 464 534 37,000  Level FlightAware ADS-B (KMDQ)
08:45PM 35.6940 -84.8967 175° South 458 527 37,000  Level FlightAware ADS-B (KMDQ)
08:49PM 34.6552 -84.7861 175° South 449 517 37,000  Level FlightAware ADS-B (KDZJ)
08:49PM 34.5753 -84.7777 175° South 450 518 37,000  Level FlightAware ADS-B (KDZJ)
08:50PM 34.4890 -84.7686 175° South 450 518 37,000  Level FlightAware ADS-B (KDZJ)
08:51PM 34.4073 -84.7600 175° South 452 520 37,000  Level FlightAware ADS-B (KDZJ)
08:51PM 34.3268 -84.7517 175° South 452 520 37,000  Level FlightAware ADS-B (KDZJ)
08:52PM 34.2420 -84.7427 175° South 454 522 37,000  Level FlightAware ADS-B (KDZJ)
08:53PM 34.1590 -84.7341 175° South 454 522 37,000  Level FlightAware ADS-B (KDZJ)
08:53PM 34.0739 -84.7253 175° South 454 522 37,000  Level FlightAware ADS-B (KDZJ)
08:54PM 33.9910 -84.7165 175° South 455 524 37,000  Level FlightAware ADS-B (KDZJ)
08:55PM 33.9060 -84.7077 175° South 450 518 37,000  Level FlightAware ADS-B (KDZJ)
08:55PM 33.8328 -84.7002 175° South 449 517 37,000  Level FlightAware ADS-B (KDZJ)
08:57PM 33.7050 -84.6906 175° South 463 533 37,000  Level Atlanta Center
08:58PM 33.5756 -84.6769 175° South 463 533 37,000  Level Atlanta Center
08:59PM 33.4503 -84.6661 176° South 463 533 37,000  Level Atlanta Center
09:00PM 33.3231 -84.6503 174° South 463 533 37,000  Level Atlanta Center
09:01PM 33.1936 -84.6394 176° South 463 533 37,000  Level Atlanta Center
09:02PM 33.0686 -84.6264 175° South 463 533 37,000  Level Atlanta Center
09:03PM 32.9392 -84.6131 175° South 463 533 37,000  Level Atlanta Center
09:04PM 32.8097 -84.6000 175° South 463 533 37,000 -60 Level Atlanta Center
09:05PM 32.6722 -84.5842 174° South 458 527 36,900  Descending Atlanta Center
09:06PM 32.5408 -84.5736 176° South 465 535 37,000  Climbing Atlanta Center
09:07PM 32.4133 -84.5581 174° South 465 535 37,000  Level Atlanta Center
09:08PM 32.2414 -84.5383 174° South 475 547 37,000  Level Jacksonville Center
09:09PM 32.0872 -84.5233 175° South 475 547 37,000  Level Jacksonville Center
09:10PM 31.9578 -84.5111 175° South 475 547 37,000  Level Jacksonville Center
09:11PM 31.8311 -84.4722 165° South 475 547 37,000  Level Jacksonville Center
09:12PM 31.7061 -84.4383 167° South 470 541 37,000  Level Jacksonville Center
09:17PM 31.1300 -84.2615 161° South 460 529 37,000  Level FlightAware ADS-B (KTLH)
09:18PM 31.0291 -84.2211 161° South 463 533 37,000  Level FlightAware ADS-B (KTLH)
09:18PM 30.9299 -84.1813 161° South 465 535 37,000  Level FlightAware ADS-B (KTLH)
09:19PM 30.8630 -84.1545 161° South 468 539 37,000  Level FlightAware ADS-B (KTLH)
09:20PM 30.7939 -84.1269 161° South 470 541 37,000  Level FlightAware ADS-B
09:20PM 30.7214 -84.0980 161° South 471 542 37,000 -300 Level FlightAware ADS-B
09:21PM 30.6439 -84.0672 161° South 466 536 36,700 -720 Descending FlightAware ADS-B
09:21PM 30.6110 -84.0541 161° South 469 540 36,100 -960 Descending FlightAware ADS-B
09:22PM 30.4987 -84.0093 161° South 472 543 35,600 -960 Descending FlightAware ADS-B
09:22PM 30.4314 -83.9828 161° South 474 545 35,100 -1,020 Descending FlightAware ADS-B (KTLH)
09:23PM 30.3560 -83.9528 161° South 479 551 34,400 -1,080 Descending FlightAware ADS-B
09:24PM 30.2880 -83.9261 161° South 483 556 33,900 -1,020 Descending FlightAware ADS-B (KTLH)
09:24PM 30.2205 -83.8995 161° South 488 562 33,400 -1,080 Descending FlightAware ADS-B (KTLH)
09:25PM 30.2248 -83.9012 161° South 488 562 32,800 -1,020 Descending FlightAware ADS-B
09:26PM 30.0405 -83.8900 185° South 454 522 31,100 -900 Descending FlightAware ADS-B (KTLH)
09:27PM 29.8492 -83.9103 185° South 473 544 30,700 -900 Descending Jacksonville Center
09:28PM 29.7258 -83.9211 184° South 467 537 29,700 -1,020 Descending Jacksonville Center
09:29PM 29.6025 -83.9317 184° South 457 526 28,700 -960 Descending Jacksonville Center
09:30PM 29.4817 -83.9208 176° South 450 518 27,800 -960 Descending Jacksonville Center
09:31PM 29.3628 -83.9075 174° South 437 503 26,800 -960 Descending Jacksonville Center
09:32PM 29.2458 -83.8944 174° South 432 497 25,900 -960 Descending Jacksonville Center
09:33PM 29.1397 -83.8389 155° Southeast 416 479 24,900 -1,020 Descending Jacksonville Center
09:34PM 29.0550 -83.7431 135° Southeast 416 479 23,900 -960 Descending Jacksonville Center
09:35PM 28.9761 -83.6497 134° Southeast 411 473 23,000 -960 Descending Jacksonville Center
09:36PM 28.8994 -83.5589 134° Southeast 405 466 22,000 -900 Descending Jacksonville Center
09:37PM 28.8247 -83.4683 133° Southeast 394 453 21,200 -420 Descending Jacksonville Center
09:38PM 28.7458 -83.3803 136° Southeast 394 453 21,200 -660 Level Jacksonville Center
09:39PM 28.6689 -83.2900 134° Southeast 394 453 19,900 -2,040 Descending Jacksonville Center
09:41PM 28.5000 -83.1000 135° Southeast 392 451 15,100 -2,220 Descending Tampa TRACON
09:42PM 28.4333 -83.0167 132° Southeast 373 429 13,200 -2,100 Descending Tampa TRACON
09:43PM 28.3333 -82.9500 150° Southeast 367 422 10,900 -1,620 Descending Tampa TRACON
09:44PM 28.2667 -82.9000 147° Southeast 303 349 10,000 -1,320 Descending Tampa TRACON
09:45PM 28.2000 -82.8833 168° South 282 325 8,500 -1,500 Descending Tampa TRACON
09:46PM 28.1167 -82.8333 152° Southeast 284 327 7,000 -1,440 Descending Tampa TRACON
09:47PM 28.0333 -82.8000 161° South 277 319 5,600 -1,440 Descending Tampa TRACON
09:48PM 27.9667 -82.7833 168° South 266 306 4,000 -1,200 Descending Tampa TRACON
09:49PM 27.9167 -82.7667 164° South 234 269 3,500 -960 Descending Tampa TRACON
09:50PM 27.8667 -82.7500 164° South 198 228 2,400 -840 Descending Tampa TRACON
09:51PM 27.8333 -82.7333 156° South 181 208 2,000 -540 Descending Tampa TRACON
09:52PM 27.8333 -82.6833 90° East 168 193 1,400 -720 Descending Tampa TRACON
09:53PM 27.8833 -82.6833 360° North 142 163 600 -840 Descending Tampa TRACON